sensor_id;sensor_type;location;lat;lon;timestamp;temperature;humidity
23721;DHT22;42950;52.134;5.578;2022-10-16T00:01:56;13.10;99.90
23721;DHT22;42950;52.134;5.578;2022-10-16T00:04:22;13.10;99.90
23721;DHT22;42950;52.134;5.578;2022-10-16T00:06:47;13.10;99.90
23721;DHT22;42950;52.134;5.578;2022-10-16T00:09:13;13.10;99.90
23721;DHT22;42950;52.134;5.578;2022-10-16T00:11:40;13.10;99.90
23721;DHT22;42950;52.134;5.578;2022-10-16T00:14:09;13.10;99.90
23721;DHT22;42950;52.134;5.578;2022-10-16T00:16:35;13.10;99.90
23721;DHT22;42950;52.134;5.578;2022-10-16T00:19:01;13.10;99.90
23721;DHT22;42950;52.134;5.578;2022-10-16T00:21:29;13.10;99.90
23721;DHT22;42950;52.134;5.578;2022-10-16T00:24:03;13.10;99.90
23721;DHT22;42950;52.134;5.578;2022-10-16T00:26:31;13.20;99.90
23721;DHT22;42950;52.134;5.578;2022-10-16T00:28:57;13.20;99.90
23721;DHT22;42950;52.134;5.578;2022-10-16T00:31:24;13.20;99.90
23721;DHT22;42950;52.134;5.578;2022-10-16T00:33:50;13.20;99.90
23721;DHT22;42950;52.134;5.578;2022-10-16T00:36:19;13.10;99.90
23721;DHT22;42950;52.134;5.578;2022-10-16T00:38:45;13.20;99.90
23721;DHT22;42950;52.134;5.578;2022-10-16T00:41:15;13.10;99.90
23721;DHT22;42950;52.134;5.578;2022-10-16T00:43:49;13.20;99.90
23721;DHT22;42950;52.134;5.578;2022-10-16T00:46:17;13.20;99.90
23721;DHT22;42950;52.134;5.578;2022-10-16T00:51:23;13.20;99.90
23721;DHT22;42950;52.134;5.578;2022-10-16T00:53:50;13.20;99.90
23721;DHT22;42950;52.134;5.578;2022-10-16T00:56:16;13.20;99.90
23721;DHT22;42950;52.134;5.578;2022-10-16T00:58:42;13.30;99.90
23721;DHT22;42950;52.134;5.578;2022-10-16T01:01:07;13.30;99.90
23721;DHT22;42950;52.134;5.578;2022-10-16T01:03:35;13.30;99.90
23721;DHT22;42950;52.134;5.578;2022-10-16T01:09:17;13.40;99.90
23721;DHT22;42950;52.134;5.578;2022-10-16T01:14:53;13.40;99.90
23721;DHT22;42950;52.134;5.578;2022-10-16T01:17:35;13.40;99.90
23721;DHT22;42950;52.134;5.578;2022-10-16T01:20:04;13.40;99.90
23721;DHT22;42950;52.134;5.578;2022-10-16T01:25:22;13.40;99.90
23721;DHT22;42950;52.134;5.578;2022-10-16T01:27:49;13.40;99.90
23721;DHT22;42950;52.134;5.578;2022-10-16T01:30:26;13.40;99.90
23721;DHT22;42950;52.134;5.578;2022-10-16T01:32:57;13.40;99.90
23721;DHT22;42950;52.134;5.578;2022-10-16T01:35:31;13.40;99.90
23721;DHT22;42950;52.134;5.578;2022-10-16T01:40:33;13.40;99.90
23721;DHT22;42950;52.134;5.578;2022-10-16T01:43:14;13.50;99.90
23721;DHT22;42950;52.134;5.578;2022-10-16T01:45:42;13.40;99.90
23721;DHT22;42950;52.134;5.578;2022-10-16T01:48:12;13.50;99.90
23721;DHT22;42950;52.134;5.578;2022-10-16T01:50:41;13.50;99.90
23721;DHT22;42950;52.134;5.578;2022-10-16T01:53:11;13.50;99.90
23721;DHT22;42950;52.134;5.578;2022-10-16T01:55:40;13.50;99.90
23721;DHT22;42950;52.134;5.578;2022-10-16T01:58:10;13.50;99.90
23721;DHT22;42950;52.134;5.578;2022-10-16T02:00:38;13.50;99.90
23721;DHT22;42950;52.134;5.578;2022-10-16T02:03:05;13.50;99.90
23721;DHT22;42950;52.134;5.578;2022-10-16T02:05:46;13.50;99.90
23721;DHT22;42950;52.134;5.578;2022-10-16T02:08:12;13.50;99.90
23721;DHT22;42950;52.134;5.578;2022-10-16T02:10:38;13.50;99.90
23721;DHT22;42950;52.134;5.578;2022-10-16T02:15:41;13.50;99.90
23721;DHT22;42950;52.134;5.578;2022-10-16T02:18:08;13.50;99.90
23721;DHT22;42950;52.134;5.578;2022-10-16T02:20:43;13.60;99.90
23721;DHT22;42950;52.134;5.578;2022-10-16T02:23:16;13.60;99.90
23721;DHT22;42950;52.134;5.578;2022-10-16T02:25:45;13.50;99.90
23721;DHT22;42950;52.134;5.578;2022-10-16T02:28:27;13.60;99.90
23721;DHT22;42950;52.134;5.578;2022-10-16T02:30:58;13.50;99.90
23721;DHT22;42950;52.134;5.578;2022-10-16T02:33:26;13.50;99.90
23721;DHT22;42950;52.134;5.578;2022-10-16T02:35:52;13.60;99.90
23721;DHT22;42950;52.134;5.578;2022-10-16T02:38:20;13.50;99.90
23721;DHT22;42950;52.134;5.578;2022-10-16T02:40:46;13.60;99.90
23721;DHT22;42950;52.134;5.578;2022-10-16T02:43:12;13.60;99.90
23721;DHT22;42950;52.134;5.578;2022-10-16T02:45:38;13.60;99.90
23721;DHT22;42950;52.134;5.578;2022-10-16T02:48:05;13.60;99.90
23721;DHT22;42950;52.134;5.578;2022-10-16T02:50:30;13.50;99.90
23721;DHT22;42950;52.134;5.578;2022-10-16T02:52:56;13.50;99.90
23721;DHT22;42950;52.134;5.578;2022-10-16T02:55:22;13.50;99.90
23721;DHT22;42950;52.134;5.578;2022-10-16T02:57:47;13.50;99.90
23721;DHT22;42950;52.134;5.578;2022-10-16T03:00:15;13.50;99.90
23721;DHT22;42950;52.134;5.578;2022-10-16T03:02:40;13.50;99.90
23721;DHT22;42950;52.134;5.578;2022-10-16T03:05:07;13.50;99.90
23721;DHT22;42950;52.134;5.578;2022-10-16T03:07:32;13.50;99.90
23721;DHT22;42950;52.134;5.578;2022-10-16T03:09:58;13.50;99.90
23721;DHT22;42950;52.134;5.578;2022-10-16T03:12:26;13.50;99.90
23721;DHT22;42950;52.134;5.578;2022-10-16T03:14:52;13.50;99.90
23721;DHT22;42950;52.134;5.578;2022-10-16T03:17:18;13.50;99.90
23721;DHT22;42950;52.134;5.578;2022-10-16T03:19:43;13.50;99.90
23721;DHT22;42950;52.134;5.578;2022-10-16T03:22:09;13.40;99.90
23721;DHT22;42950;52.134;5.578;2022-10-16T03:24:34;13.50;99.90
23721;DHT22;42950;52.134;5.578;2022-10-16T03:27:00;13.40;99.90
23721;DHT22;42950;52.134;5.578;2022-10-16T03:29:26;13.50;99.90
23721;DHT22;42950;52.134;5.578;2022-10-16T03:31:51;13.50;99.90
23721;DHT22;42950;52.134;5.578;2022-10-16T03:34:17;13.40;99.90
23721;DHT22;42950;52.134;5.578;2022-10-16T03:36:42;13.40;99.90
23721;DHT22;42950;52.134;5.578;2022-10-16T03:39:08;13.30;99.90
23721;DHT22;42950;52.134;5.578;2022-10-16T03:41:33;13.40;99.90
23721;DHT22;42950;52.134;5.578;2022-10-16T03:43:59;13.40;99.90
23721;DHT22;42950;52.134;5.578;2022-10-16T03:46:24;13.30;99.90
23721;DHT22;42950;52.134;5.578;2022-10-16T03:48:50;13.30;99.90
23721;DHT22;42950;52.134;5.578;2022-10-16T03:51:15;13.20;99.90
23721;DHT22;42950;52.134;5.578;2022-10-16T03:53:41;13.30;99.90
23721;DHT22;42950;52.134;5.578;2022-10-16T03:56:07;13.30;99.90
23721;DHT22;42950;52.134;5.578;2022-10-16T03:58:32;13.20;99.90
23721;DHT22;42950;52.134;5.578;2022-10-16T04:00:58;13.30;99.90
23721;DHT22;42950;52.134;5.578;2022-10-16T04:03:23;13.20;99.90
23721;DHT22;42950;52.134;5.578;2022-10-16T04:05:49;13.10;99.90
23721;DHT22;42950;52.134;5.578;2022-10-16T04:08:15;13.10;99.90
23721;DHT22;42950;52.134;5.578;2022-10-16T04:10:42;13.10;99.90
23721;DHT22;42950;52.134;5.578;2022-10-16T04:13:09;13.10;99.90
23721;DHT22;42950;52.134;5.578;2022-10-16T04:15:34;13.10;99.90
23721;DHT22;42950;52.134;5.578;2022-10-16T04:18:00;13.10;99.90
23721;DHT22;42950;52.134;5.578;2022-10-16T04:20:26;13.10;99.90
23721;DHT22;42950;52.134;5.578;2022-10-16T04:22:51;13.10;99.90
23721;DHT22;42950;52.134;5.578;2022-10-16T04:25:17;13.10;99.90
23721;DHT22;42950;52.134;5.578;2022-10-16T04:27:43;13.10;99.90
23721;DHT22;42950;52.134;5.578;2022-10-16T04:30:10;13.10;99.90
23721;DHT22;42950;52.134;5.578;2022-10-16T04:32:35;13.10;99.90
23721;DHT22;42950;52.134;5.578;2022-10-16T04:35:01;13.10;99.90
23721;DHT22;42950;52.134;5.578;2022-10-16T04:37:28;13.10;99.90
23721;DHT22;42950;52.134;5.578;2022-10-16T04:39:54;13.10;99.90
23721;DHT22;42950;52.134;5.578;2022-10-16T04:42:20;13.00;99.90
23721;DHT22;42950;52.134;5.578;2022-10-16T04:44:46;13.00;99.90
23721;DHT22;42950;52.134;5.578;2022-10-16T04:47:12;13.00;99.90
23721;DHT22;42950;52.134;5.578;2022-10-16T04:49:37;12.90;99.90
23721;DHT22;42950;52.134;5.578;2022-10-16T04:52:03;12.90;99.90
23721;DHT22;42950;52.134;5.578;2022-10-16T04:54:29;12.90;99.90
23721;DHT22;42950;52.134;5.578;2022-10-16T04:56:54;12.90;99.90
23721;DHT22;42950;52.134;5.578;2022-10-16T04:59:20;13.00;99.90
23721;DHT22;42950;52.134;5.578;2022-10-16T05:01:46;12.90;99.90
23721;DHT22;42950;52.134;5.578;2022-10-16T05:04:12;13.00;99.90
23721;DHT22;42950;52.134;5.578;2022-10-16T05:06:38;12.90;99.90
23721;DHT22;42950;52.134;5.578;2022-10-16T05:09:05;12.90;99.90
23721;DHT22;42950;52.134;5.578;2022-10-16T05:11:31;12.90;99.90
23721;DHT22;42950;52.134;5.578;2022-10-16T05:13:57;12.90;99.90
23721;DHT22;42950;52.134;5.578;2022-10-16T05:16:23;12.90;99.90
23721;DHT22;42950;52.134;5.578;2022-10-16T05:18:48;12.90;99.90
23721;DHT22;42950;52.134;5.578;2022-10-16T05:21:14;12.90;99.90
23721;DHT22;42950;52.134;5.578;2022-10-16T05:23:39;12.90;99.90
23721;DHT22;42950;52.134;5.578;2022-10-16T05:26:05;12.80;99.90
23721;DHT22;42950;52.134;5.578;2022-10-16T05:28:30;12.80;99.90
23721;DHT22;42950;52.134;5.578;2022-10-16T05:30:56;12.80;99.90
23721;DHT22;42950;52.134;5.578;2022-10-16T05:33:24;12.70;99.90
23721;DHT22;42950;52.134;5.578;2022-10-16T05:35:50;12.70;99.90
23721;DHT22;42950;52.134;5.578;2022-10-16T05:38:17;12.70;99.90
23721;DHT22;42950;52.134;5.578;2022-10-16T05:40:43;12.70;99.90
23721;DHT22;42950;52.134;5.578;2022-10-16T05:43:08;12.70;99.90
23721;DHT22;42950;52.134;5.578;2022-10-16T05:45:34;12.70;99.90
23721;DHT22;42950;52.134;5.578;2022-10-16T05:48:00;12.60;99.90
23721;DHT22;42950;52.134;5.578;2022-10-16T05:50:26;12.60;99.90
23721;DHT22;42950;52.134;5.578;2022-10-16T05:52:52;12.70;99.90
23721;DHT22;42950;52.134;5.578;2022-10-16T05:55:17;12.60;99.90
23721;DHT22;42950;52.134;5.578;2022-10-16T05:57:43;12.60;99.90
23721;DHT22;42950;52.134;5.578;2022-10-16T06:00:09;12.60;99.90
23721;DHT22;42950;52.134;5.578;2022-10-16T06:02:35;12.60;99.90
23721;DHT22;42950;52.134;5.578;2022-10-16T06:05:01;12.60;99.90
23721;DHT22;42950;52.134;5.578;2022-10-16T06:07:26;12.70;99.90
23721;DHT22;42950;52.134;5.578;2022-10-16T06:09:53;12.70;99.90
23721;DHT22;42950;52.134;5.578;2022-10-16T06:12:19;12.80;99.90
23721;DHT22;42950;52.134;5.578;2022-10-16T06:14:45;12.80;99.90
23721;DHT22;42950;52.134;5.578;2022-10-16T06:17:13;12.80;99.90
23721;DHT22;42950;52.134;5.578;2022-10-16T06:19:39;12.80;99.90
23721;DHT22;42950;52.134;5.578;2022-10-16T06:22:04;12.80;99.90
23721;DHT22;42950;52.134;5.578;2022-10-16T06:24:30;12.80;99.90
23721;DHT22;42950;52.134;5.578;2022-10-16T06:26:56;12.90;99.90
23721;DHT22;42950;52.134;5.578;2022-10-16T06:29:21;12.90;99.90
23721;DHT22;42950;52.134;5.578;2022-10-16T06:31:47;12.90;99.90
23721;DHT22;42950;52.134;5.578;2022-10-16T06:34:12;12.90;99.90
23721;DHT22;42950;52.134;5.578;2022-10-16T06:36:38;13.00;99.90
23721;DHT22;42950;52.134;5.578;2022-10-16T06:39:05;13.00;99.90
23721;DHT22;42950;52.134;5.578;2022-10-16T06:41:32;13.00;99.90
23721;DHT22;42950;52.134;5.578;2022-10-16T06:43:58;13.00;99.90
23721;DHT22;42950;52.134;5.578;2022-10-16T06:46:25;13.00;99.90
23721;DHT22;42950;52.134;5.578;2022-10-16T06:48:51;13.10;99.90
23721;DHT22;42950;52.134;5.578;2022-10-16T06:51:22;13.10;99.90
23721;DHT22;42950;52.134;5.578;2022-10-16T06:53:50;13.10;99.90
23721;DHT22;42950;52.134;5.578;2022-10-16T06:56:21;13.20;99.90
23721;DHT22;42950;52.134;5.578;2022-10-16T06:58:46;13.20;99.90
23721;DHT22;42950;52.134;5.578;2022-10-16T07:01:13;13.20;99.90
23721;DHT22;42950;52.134;5.578;2022-10-16T07:03:40;13.20;99.90
23721;DHT22;42950;52.134;5.578;2022-10-16T07:06:08;13.20;99.90
23721;DHT22;42950;52.134;5.578;2022-10-16T07:08:35;13.20;99.90
23721;DHT22;42950;52.134;5.578;2022-10-16T07:11:04;13.30;99.90
23721;DHT22;42950;52.134;5.578;2022-10-16T07:13:32;13.30;99.90
23721;DHT22;42950;52.134;5.578;2022-10-16T07:15:58;13.30;99.90
23721;DHT22;42950;52.134;5.578;2022-10-16T07:18:23;13.20;99.90
23721;DHT22;42950;52.134;5.578;2022-10-16T07:20:52;13.30;99.90
23721;DHT22;42950;52.134;5.578;2022-10-16T07:23:17;13.30;99.90
23721;DHT22;42950;52.134;5.578;2022-10-16T07:25:43;13.30;99.90
23721;DHT22;42950;52.134;5.578;2022-10-16T07:28:08;13.30;99.90
23721;DHT22;42950;52.134;5.578;2022-10-16T07:30:36;13.40;99.90
23721;DHT22;42950;52.134;5.578;2022-10-16T07:33:02;13.40;99.90
23721;DHT22;42950;52.134;5.578;2022-10-16T07:35:28;13.50;99.90
23721;DHT22;42950;52.134;5.578;2022-10-16T07:37:53;13.40;99.90
23721;DHT22;42950;52.134;5.578;2022-10-16T07:40:19;13.50;99.90
23721;DHT22;42950;52.134;5.578;2022-10-16T07:42:44;13.50;99.90
23721;DHT22;42950;52.134;5.578;2022-10-16T07:45:10;13.50;99.90
23721;DHT22;42950;52.134;5.578;2022-10-16T07:47:35;13.60;99.90
23721;DHT22;42950;52.134;5.578;2022-10-16T07:50:01;13.60;99.90
23721;DHT22;42950;52.134;5.578;2022-10-16T07:52:27;13.70;99.90
23721;DHT22;42950;52.134;5.578;2022-10-16T07:54:52;13.70;99.90
23721;DHT22;42950;52.134;5.578;2022-10-16T07:57:18;13.80;99.90
23721;DHT22;42950;52.134;5.578;2022-10-16T07:59:45;13.80;99.90
23721;DHT22;42950;52.134;5.578;2022-10-16T08:02:11;13.90;99.90
23721;DHT22;42950;52.134;5.578;2022-10-16T08:04:37;13.80;99.90
23721;DHT22;42950;52.134;5.578;2022-10-16T08:07:03;13.80;99.90
23721;DHT22;42950;52.134;5.578;2022-10-16T08:09:28;13.90;99.90
23721;DHT22;42950;52.134;5.578;2022-10-16T08:11:54;13.90;99.90
23721;DHT22;42950;52.134;5.578;2022-10-16T08:14:19;13.90;99.90
23721;DHT22;42950;52.134;5.578;2022-10-16T08:16:45;13.90;99.90
23721;DHT22;42950;52.134;5.578;2022-10-16T08:19:11;14.00;99.90
23721;DHT22;42950;52.134;5.578;2022-10-16T08:21:36;14.00;99.90
23721;DHT22;42950;52.134;5.578;2022-10-16T08:24:02;14.10;99.90
23721;DHT22;42950;52.134;5.578;2022-10-16T08:26:27;14.10;99.90
23721;DHT22;42950;52.134;5.578;2022-10-16T08:28:53;14.20;99.90
23721;DHT22;42950;52.134;5.578;2022-10-16T08:31:19;14.30;99.90
23721;DHT22;42950;52.134;5.578;2022-10-16T08:33:45;14.40;99.90
23721;DHT22;42950;52.134;5.578;2022-10-16T08:36:14;14.40;99.90
23721;DHT22;42950;52.134;5.578;2022-10-16T08:38:39;14.40;99.90
23721;DHT22;42950;52.134;5.578;2022-10-16T08:41:30;14.40;99.90
23721;DHT22;42950;52.134;5.578;2022-10-16T08:49:30;14.50;99.90
23721;DHT22;42950;52.134;5.578;2022-10-16T08:51:56;14.60;99.90
23721;DHT22;42950;52.134;5.578;2022-10-16T08:54:25;14.60;99.90
23721;DHT22;42950;52.134;5.578;2022-10-16T08:56:55;14.70;99.90
23721;DHT22;42950;52.134;5.578;2022-10-16T08:59:21;14.90;99.90
23721;DHT22;42950;52.134;5.578;2022-10-16T09:01:50;14.90;99.90
23721;DHT22;42950;52.134;5.578;2022-10-16T09:07:12;15.00;99.90
23721;DHT22;42950;52.134;5.578;2022-10-16T09:12:20;15.30;99.90
23721;DHT22;42950;52.134;5.578;2022-10-16T09:17:27;15.40;99.90
23721;DHT22;42950;52.134;5.578;2022-10-16T09:20:15;15.50;99.90
23721;DHT22;42950;52.134;5.578;2022-10-16T09:22:43;15.50;99.90
23721;DHT22;42950;52.134;5.578;2022-10-16T09:25:16;15.60;99.90
23721;DHT22;42950;52.134;5.578;2022-10-16T09:27:46;15.70;99.90
23721;DHT22;42950;52.134;5.578;2022-10-16T09:30:22;15.80;99.90
23721;DHT22;42950;52.134;5.578;2022-10-16T09:32:51;16.00;99.90
23721;DHT22;42950;52.134;5.578;2022-10-16T09:35:38;16.10;99.90
23721;DHT22;42950;52.134;5.578;2022-10-16T09:38:04;16.10;99.90
23721;DHT22;42950;52.134;5.578;2022-10-16T09:40:33;16.20;99.90
23721;DHT22;42950;52.134;5.578;2022-10-16T09:43:25;16.20;99.90
23721;DHT22;42950;52.134;5.578;2022-10-16T09:48:27;16.30;99.90
23721;DHT22;42950;52.134;5.578;2022-10-16T09:50:58;16.40;99.90
23721;DHT22;42950;52.134;5.578;2022-10-16T09:53:23;16.40;99.90
23721;DHT22;42950;52.134;5.578;2022-10-16T09:55:52;16.40;99.90
23721;DHT22;42950;52.134;5.578;2022-10-16T09:58:21;16.30;99.90
23721;DHT22;42950;52.134;5.578;2022-10-16T10:00:54;16.40;99.90
23721;DHT22;42950;52.134;5.578;2022-10-16T10:03:46;16.40;99.90
23721;DHT22;42950;52.134;5.578;2022-10-16T10:11:47;16.90;99.90
23721;DHT22;42950;52.134;5.578;2022-10-16T10:19:46;17.10;99.90
23721;DHT22;42950;52.134;5.578;2022-10-16T10:24:41;17.30;99.90
23721;DHT22;42950;52.134;5.578;2022-10-16T10:27:15;17.30;99.90
23721;DHT22;42950;52.134;5.578;2022-10-16T10:32:39;17.30;99.90
23721;DHT22;42950;52.134;5.578;2022-10-16T10:35:13;17.40;99.90
23721;DHT22;42950;52.134;5.578;2022-10-16T10:41:15;17.50;99.90
23721;DHT22;42950;52.134;5.578;2022-10-16T10:46:39;17.60;99.90
23721;DHT22;42950;52.134;5.578;2022-10-16T10:57:44;17.70;99.90
23721;DHT22;42950;52.134;5.578;2022-10-16T11:05:52;17.90;99.90
23721;DHT22;42950;52.134;5.578;2022-10-16T11:08:43;17.70;99.90
23721;DHT22;42950;52.134;5.578;2022-10-16T11:11:13;17.60;99.90
23721;DHT22;42950;52.134;5.578;2022-10-16T11:14:26;17.60;99.90
23721;DHT22;42950;52.134;5.578;2022-10-16T11:19:36;17.80;99.90
23721;DHT22;42950;52.134;5.578;2022-10-16T11:27:36;17.70;99.90
23721;DHT22;42950;52.134;5.578;2022-10-16T11:30:18;17.80;99.90
23721;DHT22;42950;52.134;5.578;2022-10-16T11:41:08;18.20;99.90
23721;DHT22;42950;52.134;5.578;2022-10-16T11:43:43;18.20;99.90
23721;DHT22;42950;52.134;5.578;2022-10-16T11:46:17;18.40;99.90
23721;DHT22;42950;52.134;5.578;2022-10-16T11:48:50;18.60;99.90
23721;DHT22;42950;52.134;5.578;2022-10-16T11:51:39;18.80;99.90
23721;DHT22;42950;52.134;5.578;2022-10-16T11:56:41;18.50;99.90
23721;DHT22;42950;52.134;5.578;2022-10-16T11:59:34;18.30;99.90
23721;DHT22;42950;52.134;5.578;2022-10-16T12:04:49;18.10;99.90
23721;DHT22;42950;52.134;5.578;2022-10-16T12:07:26;18.00;99.90
23721;DHT22;42950;52.134;5.578;2022-10-16T12:09:52;17.90;99.90
23721;DHT22;42950;52.134;5.578;2022-10-16T12:12:47;17.80;99.90
23721;DHT22;42950;52.134;5.578;2022-10-16T12:17:47;17.90;99.90
23721;DHT22;42950;52.134;5.578;2022-10-16T12:22:48;18.00;99.90
23721;DHT22;42950;52.134;5.578;2022-10-16T12:25:42;18.10;99.90
23721;DHT22;42950;52.134;5.578;2022-10-16T12:28:21;18.30;99.90
23721;DHT22;42950;52.134;5.578;2022-10-16T12:31:05;18.30;99.90
23721;DHT22;42950;52.134;5.578;2022-10-16T12:33:43;18.60;99.90
23721;DHT22;42950;52.134;5.578;2022-10-16T12:36:29;18.70;99.90
23721;DHT22;42950;52.134;5.578;2022-10-16T12:38:57;19.00;99.90
23721;DHT22;42950;52.134;5.578;2022-10-16T12:41:32;19.10;99.90
23721;DHT22;42950;52.134;5.578;2022-10-16T12:43:59;19.10;99.90
23721;DHT22;42950;52.134;5.578;2022-10-16T12:51:39;18.60;99.90
23721;DHT22;42950;52.134;5.578;2022-10-16T12:54:12;18.50;99.90
23721;DHT22;42950;52.134;5.578;2022-10-16T13:10:40;18.80;99.90
23721;DHT22;42950;52.134;5.578;2022-10-16T13:16:11;18.80;99.90
23721;DHT22;42950;52.134;5.578;2022-10-16T13:18:56;19.00;99.90
23721;DHT22;42950;52.134;5.578;2022-10-16T13:24:30;19.60;99.90
23721;DHT22;42950;52.134;5.578;2022-10-16T13:27:24;19.70;99.90
23721;DHT22;42950;52.134;5.578;2022-10-16T13:30:01;19.80;99.90
23721;DHT22;42950;52.134;5.578;2022-10-16T13:32:27;19.90;99.90
23721;DHT22;42950;52.134;5.578;2022-10-16T13:34:53;20.00;99.90
23721;DHT22;42950;52.134;5.578;2022-10-16T13:37:21;19.90;99.90
23721;DHT22;42950;52.134;5.578;2022-10-16T13:39:48;19.80;99.90
23721;DHT22;42950;52.134;5.578;2022-10-16T13:42:27;19.80;99.90
23721;DHT22;42950;52.134;5.578;2022-10-16T13:44:54;19.60;99.90
23721;DHT22;42950;52.134;5.578;2022-10-16T13:47:25;19.40;99.90
23721;DHT22;42950;52.134;5.578;2022-10-16T13:50:05;19.30;99.90
23721;DHT22;42950;52.134;5.578;2022-10-16T13:52:31;19.00;99.90
23721;DHT22;42950;52.134;5.578;2022-10-16T13:54:57;18.90;99.90
23721;DHT22;42950;52.134;5.578;2022-10-16T13:57:25;18.70;99.90
23721;DHT22;42950;52.134;5.578;2022-10-16T13:59:52;18.60;99.90
23721;DHT22;42950;52.134;5.578;2022-10-16T14:02:26;18.60;99.90
23721;DHT22;42950;52.134;5.578;2022-10-16T14:04:53;18.60;99.90
23721;DHT22;42950;52.134;5.578;2022-10-16T14:07:31;18.50;99.90
23721;DHT22;42950;52.134;5.578;2022-10-16T14:10:20;18.60;99.90
23721;DHT22;42950;52.134;5.578;2022-10-16T14:12:58;18.60;99.90
23721;DHT22;42950;52.134;5.578;2022-10-16T14:15:24;18.50;99.90
23721;DHT22;42950;52.134;5.578;2022-10-16T14:17:52;18.50;99.90
23721;DHT22;42950;52.134;5.578;2022-10-16T14:20:18;18.60;99.90
23721;DHT22;42950;52.134;5.578;2022-10-16T14:22:45;18.60;99.90
23721;DHT22;42950;52.134;5.578;2022-10-16T14:28:21;18.60;99.90
23721;DHT22;42950;52.134;5.578;2022-10-16T14:30:58;18.60;99.90
23721;DHT22;42950;52.134;5.578;2022-10-16T14:38:25;18.40;99.90
23721;DHT22;42950;52.134;5.578;2022-10-16T14:40:51;18.50;99.90
23721;DHT22;42950;52.134;5.578;2022-10-16T14:43:31;18.60;99.90
23721;DHT22;42950;52.134;5.578;2022-10-16T14:45:58;18.70;99.90
23721;DHT22;42950;52.134;5.578;2022-10-16T14:48:24;18.70;99.90
23721;DHT22;42950;52.134;5.578;2022-10-16T14:50:50;18.60;99.90
23721;DHT22;42950;52.134;5.578;2022-10-16T14:53:16;18.60;99.90
23721;DHT22;42950;52.134;5.578;2022-10-16T14:55:42;18.80;99.90
23721;DHT22;42950;52.134;5.578;2022-10-16T14:58:22;18.80;99.90
23721;DHT22;42950;52.134;5.578;2022-10-16T15:00:48;18.70;99.90
23721;DHT22;42950;52.134;5.578;2022-10-16T15:03:14;18.70;99.90
23721;DHT22;42950;52.134;5.578;2022-10-16T15:05:40;18.70;99.90
23721;DHT22;42950;52.134;5.578;2022-10-16T15:08:06;18.70;99.90
23721;DHT22;42950;52.134;5.578;2022-10-16T15:10:37;18.60;99.90
23721;DHT22;42950;52.134;5.578;2022-10-16T15:13:12;18.60;99.90
23721;DHT22;42950;52.134;5.578;2022-10-16T15:18:07;18.60;99.90
23721;DHT22;42950;52.134;5.578;2022-10-16T15:20:35;18.60;99.90
23721;DHT22;42950;52.134;5.578;2022-10-16T15:23:03;18.60;99.90
23721;DHT22;42950;52.134;5.578;2022-10-16T15:25:51;18.60;99.90
23721;DHT22;42950;52.134;5.578;2022-10-16T15:28:18;18.60;99.90
23721;DHT22;42950;52.134;5.578;2022-10-16T15:30:45;18.50;99.90
23721;DHT22;42950;52.134;5.578;2022-10-16T15:33:16;18.50;99.90
23721;DHT22;42950;52.134;5.578;2022-10-16T15:35:45;18.40;99.90
23721;DHT22;42950;52.134;5.578;2022-10-16T15:38:12;18.20;99.90
23721;DHT22;42950;52.134;5.578;2022-10-16T15:40:39;18.20;99.90
23721;DHT22;42950;52.134;5.578;2022-10-16T15:43:05;18.10;99.90
23721;DHT22;42950;52.134;5.578;2022-10-16T15:45:31;18.00;99.90
23721;DHT22;42950;52.134;5.578;2022-10-16T15:47:57;17.90;99.90
23721;DHT22;42950;52.134;5.578;2022-10-16T15:50:23;17.80;99.90
23721;DHT22;42950;52.134;5.578;2022-10-16T15:52:49;17.90;99.90
23721;DHT22;42950;52.134;5.578;2022-10-16T15:55:15;17.80;99.90
23721;DHT22;42950;52.134;5.578;2022-10-16T15:57:41;17.80;99.90
23721;DHT22;42950;52.134;5.578;2022-10-16T16:00:18;17.90;99.90
23721;DHT22;42950;52.134;5.578;2022-10-16T16:02:53;17.90;99.90
23721;DHT22;42950;52.134;5.578;2022-10-16T16:05:19;17.90;99.90
23721;DHT22;42950;52.134;5.578;2022-10-16T16:07:45;17.80;99.90
23721;DHT22;42950;52.134;5.578;2022-10-16T16:10:11;17.80;99.90
23721;DHT22;42950;52.134;5.578;2022-10-16T16:12:38;17.80;99.90
23721;DHT22;42950;52.134;5.578;2022-10-16T16:15:06;17.70;99.90
23721;DHT22;42950;52.134;5.578;2022-10-16T16:17:33;17.60;99.90
23721;DHT22;42950;52.134;5.578;2022-10-16T16:19:59;17.60;99.90
23721;DHT22;42950;52.134;5.578;2022-10-16T16:22:24;17.60;99.90
23721;DHT22;42950;52.134;5.578;2022-10-16T16:24:50;17.60;99.90
23721;DHT22;42950;52.134;5.578;2022-10-16T16:27:16;17.50;99.90
23721;DHT22;42950;52.134;5.578;2022-10-16T16:29:48;17.50;99.90
23721;DHT22;42950;52.134;5.578;2022-10-16T16:32:13;17.50;99.90
23721;DHT22;42950;52.134;5.578;2022-10-16T16:34:39;17.40;99.90
23721;DHT22;42950;52.134;5.578;2022-10-16T16:37:04;17.40;99.90
23721;DHT22;42950;52.134;5.578;2022-10-16T16:39:31;17.40;99.90
23721;DHT22;42950;52.134;5.578;2022-10-16T16:41:57;17.30;99.90
23721;DHT22;42950;52.134;5.578;2022-10-16T16:44:24;17.20;99.90
23721;DHT22;42950;52.134;5.578;2022-10-16T16:46:49;17.20;99.90
23721;DHT22;42950;52.134;5.578;2022-10-16T16:49:15;17.10;99.90
23721;DHT22;42950;52.134;5.578;2022-10-16T16:51:41;17.00;99.90
23721;DHT22;42950;52.134;5.578;2022-10-16T16:54:07;17.00;99.90
23721;DHT22;42950;52.134;5.578;2022-10-16T16:56:33;17.00;99.90
23721;DHT22;42950;52.134;5.578;2022-10-16T16:58:59;16.90;99.90
23721;DHT22;42950;52.134;5.578;2022-10-16T17:01:26;16.90;99.90
23721;DHT22;42950;52.134;5.578;2022-10-16T17:03:53;16.90;99.90
23721;DHT22;42950;52.134;5.578;2022-10-16T17:06:21;16.80;99.90
23721;DHT22;42950;52.134;5.578;2022-10-16T17:08:48;16.80;99.90
23721;DHT22;42950;52.134;5.578;2022-10-16T17:11:17;16.70;99.90
23721;DHT22;42950;52.134;5.578;2022-10-16T17:13:43;16.70;99.90
23721;DHT22;42950;52.134;5.578;2022-10-16T17:16:09;16.70;99.90
23721;DHT22;42950;52.134;5.578;2022-10-16T17:18:35;16.70;99.90
23721;DHT22;42950;52.134;5.578;2022-10-16T17:21:02;16.60;99.90
23721;DHT22;42950;52.134;5.578;2022-10-16T17:23:28;16.50;99.90
23721;DHT22;42950;52.134;5.578;2022-10-16T17:25:54;16.40;99.90
23721;DHT22;42950;52.134;5.578;2022-10-16T17:28:20;16.40;99.90
23721;DHT22;42950;52.134;5.578;2022-10-16T17:30:46;16.30;99.90
23721;DHT22;42950;52.134;5.578;2022-10-16T17:33:12;16.30;99.90
23721;DHT22;42950;52.134;5.578;2022-10-16T17:35:43;16.30;99.90
23721;DHT22;42950;52.134;5.578;2022-10-16T17:38:10;16.30;99.90
23721;DHT22;42950;52.134;5.578;2022-10-16T17:40:36;16.20;99.90
23721;DHT22;42950;52.134;5.578;2022-10-16T17:43:02;16.30;99.90
23721;DHT22;42950;52.134;5.578;2022-10-16T17:45:28;16.20;99.90
23721;DHT22;42950;52.134;5.578;2022-10-16T17:47:54;16.20;99.90
23721;DHT22;42950;52.134;5.578;2022-10-16T17:50:20;16.20;99.90
23721;DHT22;42950;52.134;5.578;2022-10-16T17:52:45;16.20;99.90